Time;durP1;ratioP1;P1;durP2;ratioP2;P2;SDS_P1;SDS_P2;PMS_P1;PMS_P2;Temp;Humidity;BMP_temperature;BMP_pressure;BME280_temperature;BME280_humidity;BME280_pressure;Samples;Min_cycle;Max_cycle;Signal;HPM_P1;HPM_P2
2022/01/22 00:02:08;;;;;;;16.58;6.45;;;;;;;2.69;100.00;102658.06;5115280;27;20051;-84
2022/01/22 00:04:36;;;;;;;15.10;6.32;;;;;;;2.88;100.00;102663.72;5134479;27;20046;-84
2022/01/22 00:07:06;;;;;;;12.82;5.28;;;;;;;3.06;100.00;102676.25;5116315;27;20039;-84
2022/01/22 00:09:51;;;;;;;11.57;4.18;;;;;;;3.10;100.00;102670.28;5133636;27;20144;-84
2022/01/22 00:15:14;;;;;;;9.55;4.38;;;;;;;3.22;100.00;102694.78;5125380;27;20404;-84
2022/01/22 00:17:41;;;;;;;11.23;4.32;;;;;;;3.11;100.00;102690.16;5115313;27;20047;-84
2022/01/22 00:20:09;;;;;;;11.45;4.20;;;;;;;2.93;100.00;102665.59;5135335;27;20093;-84
2022/01/22 00:22:37;;;;;;;12.75;4.57;;;;;;;2.86;100.00;102684.38;5134754;27;20043;-84
2022/01/22 00:25:09;;;;;;;12.27;4.80;;;;;;;2.95;100.00;102694.97;5130571;27;20047;-84
2022/01/22 00:27:38;;;;;;;12.00;4.82;;;;;;;2.62;100.00;102662.22;5095629;28;20046;-84
2022/01/22 00:30:07;;;;;;;11.75;4.30;;;;;;;2.76;100.00;102691.03;5115789;27;20059;-84
2022/01/22 00:32:35;;;;;;;9.65;3.72;;;;;;;2.60;100.00;102663.91;5133215;27;20051;-84
2022/01/22 00:35:03;;;;;;;9.90;4.45;;;;;;;2.64;100.00;102689.00;5133512;27;20141;-83
2022/01/22 00:37:30;;;;;;;12.68;5.13;;;;;;;2.45;100.00;102668.66;5133332;27;20058;-83
2022/01/22 00:39:57;;;;;;;15.35;4.90;;;;;;;2.40;100.00;102649.56;5129938;27;20051;-83
2022/01/22 00:42:24;;;;;;;11.07;5.13;;;;;;;2.37;100.00;102647.75;5113478;28;20074;-83
2022/01/22 00:44:51;;;;;;;16.25;5.15;;;;;;;2.61;100.00;102673.41;5113258;28;20044;-83
2022/01/22 00:47:18;;;;;;;11.52;4.90;;;;;;;2.77;100.00;102687.59;5112813;28;20047;-83
2022/01/22 00:49:46;;;;;;;11.40;4.47;;;;;;;2.97;100.00;102684.66;5119025;27;20050;-83
2022/01/22 00:52:13;;;;;;;10.50;3.25;;;;;;;3.15;100.00;102681.63;5133473;27;20125;-83
2022/01/22 00:54:40;;;;;;;8.32;3.22;;;;;;;3.09;100.00;102633.19;5129375;27;20408;-83
2022/01/22 00:57:07;;;;;;;7.65;2.33;;;;;;;3.18;100.00;102636.00;5095321;28;20062;-84
2022/01/22 00:59:34;;;;;;;9.70;2.90;;;;;;;3.06;100.00;102607.22;5113471;28;20048;-84
2022/01/22 01:02:02;;;;;;;9.23;3.78;;;;;;;3.15;100.00;102645.41;5132571;27;20047;-84
2022/01/22 01:04:32;;;;;;;10.07;4.10;;;;;;;2.79;100.00;102646.25;5133542;27;20047;-84
2022/01/22 01:06:59;;;;;;;9.02;3.00;;;;;;;2.65;100.00;102601.94;5133745;27;20370;-84
2022/01/22 01:09:26;;;;;;;9.77;3.60;;;;;;;2.90;100.00;102629.28;5133486;27;20058;-83
2022/01/22 01:11:58;;;;;;;8.38;3.03;;;;;;;2.84;100.00;102613.63;5133138;27;20073;-84
2022/01/22 01:14:32;;;;;;;11.23;4.13;;;;;;;2.79;100.00;102616.06;5133867;27;20046;-84
2022/01/22 01:33:41;;;;;;;9.57;3.67;;;;;;;2.43;100.00;102614.31;5112913;28;20124;-83
2022/01/22 01:36:08;;;;;;;10.23;3.40;;;;;;;2.54;100.00;102630.09;5127007;27;20065;-83
2022/01/22 01:38:40;;;;;;;10.20;3.92;;;;;;;2.71;100.00;102652.94;5132700;28;20067;-83
2022/01/22 01:41:22;;;;;;;9.57;3.33;;;;;;;2.89;100.00;102666.34;5118878;28;20047;-83
2022/01/22 01:43:49;;;;;;;14.20;5.13;;;;;;;2.32;100.00;102630.38;5112416;28;20053;-83
2022/01/22 01:46:16;;;;;;;10.25;3.58;;;;;;;2.61;100.00;102673.41;5113413;28;20047;-83
2022/01/22 01:48:43;;;;;;;7.75;3.22;;;;;;;2.68;100.00;102647.72;5114464;28;20054;-84
2022/01/22 01:51:11;;;;;;;11.20;3.75;;;;;;;2.60;100.00;102621.63;5114192;28;20387;-84
2022/01/22 01:59:16;;;;;;;11.05;3.50;;;;;;;2.33;100.00;102626.97;5049364;28;20525;-82
2022/01/22 02:01:43;;;;;;;11.13;3.90;;;;;;;2.62;100.00;102640.63;5100543;28;20044;-84
2022/01/22 02:04:12;;;;;;;7.82;3.47;;;;;;;2.56;100.00;102654.28;5112568;28;20052;-84
2022/01/22 02:06:39;;;;;;;10.02;3.70;;;;;;;2.60;100.00;102644.91;5111146;28;20058;-84
2022/01/22 02:09:10;;;;;;;9.43;3.00;;;;;;;2.49;100.00;102633.41;5112591;28;20073;-83
2022/01/22 02:11:39;;;;;;;10.15;3.67;;;;;;;2.44;100.00;102634.19;5097332;28;20397;-84
2022/01/22 02:23:29;;;;;;;8.00;3.13;;;;;;;2.42;100.00;102633.22;5094247;28;20065;-84
2022/01/22 02:25:10;;;;;;;7.35;2.60;;;;;;;2.70;100.00;102625.34;5132462;28;20047;-83
2022/01/22 02:27:37;;;;;;;7.72;2.60;;;;;;;2.62;100.00;102600.16;5115118;27;20058;-82
2022/01/22 02:30:05;;;;;;;9.00;2.97;;;;;;;2.69;100.00;102597.69;5117071;27;20047;-84
2022/01/22 02:35:31;;;;;;;10.93;3.05;;;;;;;2.47;100.00;102594.59;5136288;27;20043;-84
2022/01/22 02:38:03;;;;;;;7.95;2.85;;;;;;;2.39;100.00;102604.75;5118715;27;20460;-83
2022/01/22 02:40:36;;;;;;;6.32;2.22;;;;;;;2.62;100.00;102627.72;5127585;27;20046;-82
2022/01/22 02:43:03;;;;;;;4.90;1.95;;;;;;;2.50;100.00;102591.19;5115234;28;20047;-83
2022/01/22 02:45:31;;;;;;;5.22;1.92;;;;;;;2.62;100.00;102601.84;5115065;28;20059;-84
2022/01/22 02:47:58;;;;;;;6.38;2.17;;;;;;;2.62;100.00;102614.78;5119831;27;20076;-84
2022/01/22 02:50:25;;;;;;;5.70;2.20;;;;;;;2.46;100.00;102596.31;5128426;27;20043;-84
2022/01/22 02:52:52;;;;;;;4.47;1.58;;;;;;;2.54;100.00;102601.66;5100725;27;20070;-84
2022/01/22 02:55:19;;;;;;;6.40;2.35;;;;;;;2.42;100.00;102593.59;5128261;27;20040;-84
2022/01/22 02:57:46;;;;;;;3.78;1.70;;;;;;;2.46;100.00;102595.41;5115597;28;20401;-84
2022/01/22 03:00:18;;;;;;;5.63;1.70;;;;;;;2.64;100.00;102608.81;5115085;27;20043;-84
2022/01/22 03:02:45;;;;;;;3.63;1.52;;;;;;;2.56;100.00;102601.69;5117982;27;20544;-84
2022/01/22 03:05:12;;;;;;;4.85;1.90;;;;;;;2.64;100.00;102602.78;5136067;27;20131;-84
2022/01/22 03:07:40;;;;;;;5.60;1.92;;;;;;;2.79;100.00;102616.06;5117770;27;20415;-84
2022/01/22 03:10:08;;;;;;;6.28;2.17;;;;;;;2.62;100.00;102607.00;5116535;27;20043;-83
2022/01/22 03:18:06;;;;;;;6.18;2.25;;;;;;;2.27;100.00;102591.50;5130592;27;20388;-83
2022/01/22 03:21:02;;;;;;;9.93;3.35;;;;;;;2.26;100.00;102615.56;5116775;27;20051;-83
2022/01/22 03:29:05;;;;;;;8.20;3.17;;;;;;;2.03;100.00;102589.97;5156311;27;20489;-83
2022/01/22 03:31:32;;;;;;;8.55;3.10;;;;;;;1.93;100.00;102589.69;5137347;27;20126;-84
2022/01/22 03:33:59;;;;;;;8.45;3.10;;;;;;;1.56;100.00;102534.41;5135365;27;20485;-83
2022/01/22 03:36:32;;;;;;;10.32;4.03;;;;;;;1.56;100.00;102532.72;5135303;27;20050;-83
2022/01/22 03:39:01;;;;;;;9.15;3.20;;;;;;;1.94;100.00;102601.78;5117211;27;20400;-84
2022/01/22 03:41:29;;;;;;;12.27;4.00;;;;;;;1.68;100.00;102597.63;5133821;27;20047;-83
2022/01/22 03:43:56;;;;;;;7.68;3.28;;;;;;;2.01;100.00;102614.91;5135032;27;20544;-83
2022/01/22 03:46:23;;;;;;;10.50;4.00;;;;;;;1.94;100.00;102623.31;5135098;27;20051;-83
2022/01/22 03:48:50;;;;;;;8.55;3.50;;;;;;;1.89;100.00;102604.22;5104171;27;20486;-84
2022/01/22 03:51:17;;;;;;;9.32;3.72;;;;;;;1.93;100.00;102553.50;5109965;27;20704;-84
2022/01/22 03:53:44;;;;;;;7.15;2.97;;;;;;;2.03;100.00;102589.09;5135674;27;20050;-84
2022/01/22 03:56:12;;;;;;;7.93;2.75;;;;;;;2.03;100.00;102589.09;5133852;27;20054;-83
2022/01/22 03:58:41;;;;;;;9.43;2.75;;;;;;;2.05;100.00;102582.25;5116477;27;20047;-84
2022/01/22 04:03:39;;;;;;;6.70;2.70;;;;;;;2.10;100.00;102578.09;5135150;27;20058;-85
2022/01/22 04:08:32;;;;;;;9.57;3.97;;;;;;;1.96;100.00;102585.47;5135424;27;20065;-84
2022/01/22 04:10:59;;;;;;;6.63;2.40;;;;;;;1.79;100.00;102587.59;5133686;27;20043;-84
2022/01/22 04:13:32;;;;;;;7.75;2.80;;;;;;;1.89;100.00;102584.44;5134951;27;20043;-84
2022/01/22 04:15:59;;;;;;;6.53;2.33;;;;;;;2.07;100.00;102566.00;5134490;27;20588;-83
2022/01/22 04:26:53;;;;;;;5.93;1.88;;;;;;;2.59;100.00;102563.88;5134098;27;20043;-84
2022/01/22 04:29:22;;;;;;;6.25;2.10;;;;;;;2.78;100.00;102579.81;5116108;27;20636;-84
2022/01/22 04:31:49;;;;;;;5.63;2.35;;;;;;;2.55;100.00;102567.22;5115450;27;20054;-85
2022/01/22 04:34:16;;;;;;;5.97;2.35;;;;;;;2.56;100.00;102557.75;5116110;27;20053;-84
2022/01/22 04:36:43;;;;;;;6.10;2.38;;;;;;;2.63;100.00;102573.44;5115611;27;20083;-84
2022/01/22 04:39:10;;;;;;;8.90;2.63;;;;;;;2.66;100.00;102575.25;5109502;28;20500;-83
2022/01/22 04:41:37;;;;;;;5.97;2.03;;;;;;;2.68;100.00;102565.81;5107350;28;20383;-84
2022/01/22 04:44:05;;;;;;;8.27;2.42;;;;;;;2.44;100.00;102558.28;5113693;28;20401;-85
2022/01/22 04:47:20;;;;;;;10.80;3.00;;;;;;;2.51;100.00;102544.69;5094556;28;20093;-84
2022/01/22 04:57:20;;;;;;;8.32;2.30;;;;;;;2.10;100.00;102572.94;5113482;28;20535;-84
2022/01/22 04:59:47;;;;;;;10.98;2.50;;;;;;;2.13;100.00;102573.03;5113327;27;20039;-83
2022/01/22 05:02:14;;;;;;;6.88;2.72;;;;;;;1.77;100.00;102541.88;5115495;27;20051;-84
2022/01/22 05:04:41;;;;;;;10.95;3.70;;;;;;;1.86;100.00;102540.44;5115879;27;20047;-85
2022/01/22 05:07:09;;;;;;;8.10;3.65;;;;;;;2.24;100.00;102575.88;5133378;27;20047;-84
2022/01/22 05:09:36;;;;;;;8.23;3.33;;;;;;;2.02;100.00;102526.22;5123572;27;20040;-85
2022/01/22 05:12:04;;;;;;;6.28;2.42;;;;;;;2.19;100.00;102537.00;5132729;27;20078;-84
2022/01/22 05:14:31;;;;;;;7.90;2.53;;;;;;;2.08;100.00;102533.25;5115042;27;20089;-85
2022/01/22 05:17:00;;;;;;;12.13;4.60;;;;;;;1.92;100.00;102562.13;5133597;27;20050;-84
2022/01/22 05:22:54;;;;;;;5.95;2.42;;;;;;;2.07;100.00;102558.22;5132673;27;20126;-84
2022/01/22 05:24:54;;;;;;;7.95;2.75;;;;;;;2.14;100.00;102527.38;5122766;27;20495;-84
2022/01/22 05:30:35;;;;;;;10.90;3.80;;;;;;;2.13;100.00;102567.84;5128888;27;20047;-85
2022/01/22 05:33:03;;;;;;;7.78;2.63;;;;;;;2.27;100.00;102547.53;5112638;28;20062;-85
2022/01/22 05:38:16;;;;;;;7.10;2.55;;;;;;;2.31;100.00;102520.06;5113019;28;20058;-85
2022/01/22 05:40:42;;;;;;;6.63;2.55;;;;;;;2.24;100.00;102537.97;5130659;28;20400;-84
2022/01/22 05:43:09;;;;;;;8.02;2.70;;;;;;;1.97;100.00;102499.41;5114940;28;20586;-85
2022/01/22 05:45:36;;;;;;;7.40;2.28;;;;;;;2.05;100.00;102495.31;5114623;28;20047;-85
2022/01/22 05:48:03;;;;;;;9.02;2.40;;;;;;;2.50;100.00;102557.56;5133230;27;20051;-84
2022/01/22 05:50:48;;;;;;;6.90;2.60;;;;;;;2.48;100.00;102554.97;5127374;28;20057;-85
2022/01/22 06:01:13;;;;;;;7.22;2.58;;;;;;;2.27;100.00;102504.47;5111620;28;20416;-84
2022/01/22 06:03:41;;;;;;;4.53;2.13;;;;;;;2.70;100.00;102545.16;5119119;27;20047;-84
2022/01/22 06:06:08;;;;;;;8.60;2.55;;;;;;;2.68;100.00;102560.63;5136576;27;20051;-84
2022/01/22 06:08:41;;;;;;;5.60;2.28;;;;;;;2.53;100.00;102539.56;5115248;28;20047;-84
2022/01/22 06:11:10;;;;;;;6.28;2.45;;;;;;;2.60;100.00;102534.59;5133812;27;20057;-84
2022/01/22 06:13:46;;;;;;;7.55;2.78;;;;;;;2.33;100.00;102558.03;5136409;27;20043;-84
2022/01/22 06:16:16;;;;;;;6.63;2.30;;;;;;;2.32;100.00;102555.41;5116627;27;20424;-84
2022/01/22 06:18:43;;;;;;;7.32;2.72;;;;;;;2.35;100.00;102555.50;5136393;27;20047;-84
2022/01/22 06:21:10;;;;;;;6.43;2.33;;;;;;;2.45;100.00;102529.03;5136005;27;20047;-84
2022/01/22 06:23:39;;;;;;;6.50;2.35;;;;;;;2.64;100.00;102561.41;5137101;27;20058;-84
2022/01/22 06:26:07;;;;;;;9.15;3.28;;;;;;;2.15;100.00;102505.88;5136407;27;20051;-84
2022/01/22 06:28:35;;;;;;;7.25;2.53;;;;;;;2.59;100.00;102552.66;5136462;27;20049;-84
2022/01/22 06:31:02;;;;;;;5.70;2.10;;;;;;;2.31;100.00;102483.88;5124397;27;20057;-84
2022/01/22 06:33:29;;;;;;;6.72;2.38;;;;;;;2.90;100.00;102559.41;5115814;27;20394;-84
2022/01/22 06:35:56;;;;;;;6.47;2.50;;;;;;;2.82;100.00;102561.84;5118324;27;20485;-84
2022/01/22 06:38:23;;;;;;;7.68;3.03;;;;;;;2.64;100.00;102538.13;5117908;27;20051;-84
2022/01/22 06:43:35;;;;;;;7.45;2.97;;;;;;;2.82;100.00;102568.72;5136012;27;20125;-85
2022/01/22 06:46:02;;;;;;;7.47;3.17;;;;;;;2.51;100.00;102533.47;5136362;27;20051;-84
2022/01/22 06:48:29;;;;;;;8.63;3.00;;;;;;;2.44;100.00;102525.59;5115697;28;20093;-84
2022/01/22 06:50:58;;;;;;;7.45;2.97;;;;;;;2.83;100.00;102562.69;5119982;27;20043;-84
2022/01/22 06:53:25;;;;;;;6.82;2.80;;;;;;;2.63;100.00;102532.06;5133628;27;20050;-84
2022/01/22 06:55:57;;;;;;;7.05;2.80;;;;;;;2.76;100.00;102547.88;5124950;27;20047;-82
2022/01/22 06:58:24;;;;;;;6.70;2.50;;;;;;;2.92;100.00;102546.50;5133952;27;20134;-83
2022/01/22 07:00:51;;;;;;;6.35;2.50;;;;;;;2.87;100.00;102541.25;5115610;27;20061;-84
2022/01/22 07:03:18;;;;;;;7.35;2.55;;;;;;;2.78;100.00;102538.44;5102688;28;20091;-84
2022/01/22 07:05:45;;;;;;;9.75;3.40;;;;;;;2.38;100.00;102537.47;5121295;27;20043;-84
2022/01/22 07:08:12;;;;;;;8.25;3.65;;;;;;;2.16;100.00;102533.44;5135126;27;20047;-84
2022/01/22 07:10:39;;;;;;;8.32;2.70;;;;;;;2.51;100.00;102547.28;5125800;27;20048;-84
2022/01/22 07:13:05;;;;;;;8.32;3.20;;;;;;;2.49;100.00;102546.38;5115787;28;20477;-84
2022/01/22 07:15:32;;;;;;;6.90;3.00;;;;;;;2.72;100.00;102559.00;5134745;27;20055;-83
2022/01/22 07:18:01;;;;;;;8.70;3.13;;;;;;;2.33;100.00;102506.31;5135825;27;20050;-84
2022/01/22 07:20:33;;;;;;;7.88;3.10;;;;;;;2.36;100.00;102509.00;5116766;27;20046;-84
2022/01/22 07:23:14;;;;;;;6.67;2.70;;;;;;;2.80;100.00;102548.00;5117739;27;20054;-84
2022/01/22 07:25:42;;;;;;;6.97;2.67;;;;;;;2.78;100.00;102528.06;5117236;27;20043;-84
2022/01/22 07:28:10;;;;;;;7.13;2.47;;;;;;;2.93;100.00;102531.03;5117477;27;20043;-84
2022/01/22 07:30:39;;;;;;;7.38;2.55;;;;;;;2.96;100.00;102517.31;5126609;27;20048;-84
2022/01/22 07:33:06;;;;;;;7.47;2.90;;;;;;;2.65;100.00;102532.97;5097366;28;20503;-84
2022/01/22 07:35:35;;;;;;;12.38;4.72;;;;;;;2.65;100.00;102532.97;5096078;28;20058;-85
2022/01/22 07:38:02;;;;;;;8.27;2.97;;;;;;;2.92;100.00;102542.22;5096298;27;20043;-84
2022/01/22 07:40:30;;;;;;;9.60;2.53;;;;;;;3.20;100.00;102520.41;5130248;27;20049;-84
2022/01/22 07:42:57;;;;;;;7.05;2.78;;;;;;;3.14;100.00;102516.84;5130557;27;20047;-84
2022/01/22 07:45:24;;;;;;;8.07;3.22;;;;;;;3.04;100.00;102498.50;5137777;27;20074;-84
2022/01/22 07:47:51;;;;;;;7.32;2.30;;;;;;;3.36;100.00;102534.53;5149106;27;20047;-84
2022/01/22 07:50:18;;;;;;;7.95;2.75;;;;;;;2.97;100.00;102511.28;5115838;27;20400;-84
2022/01/22 07:52:45;;;;;;;8.10;2.90;;;;;;;2.92;100.00;102537.06;5135399;27;20065;-83
2022/01/22 07:55:11;;;;;;;8.90;3.67;;;;;;;2.83;100.00;102498.91;5134919;27;20047;-84
2022/01/22 07:57:38;;;;;;;6.85;2.58;;;;;;;2.69;100.00;102465.78;5135086;27;20729;-83
2022/01/22 08:00:06;;;;;;;7.28;2.75;;;;;;;3.11;100.00;102527.97;5115682;27;20675;-84
2022/01/22 08:02:33;;;;;;;8.88;3.08;;;;;;;2.90;100.00;102493.88;5134403;27;20054;-84
2022/01/22 08:04:59;;;;;;;9.32;4.25;;;;;;;2.82;100.00;102479.03;5134138;27;20048;-84
2022/01/22 08:07:26;;;;;;;7.85;2.72;;;;;;;3.16;100.00;102520.31;5134566;27;20048;-84
2022/01/22 08:09:53;;;;;;;7.38;2.78;;;;;;;3.25;100.00;102519.66;5104324;27;20040;-84
2022/01/22 08:12:20;;;;;;;7.65;3.28;;;;;;;2.86;100.00;102495.50;5133286;27;20401;-84
2022/01/22 08:14:47;;;;;;;6.95;3.15;;;;;;;3.13;100.00;102513.34;5155258;27;20472;-84
2022/01/22 08:17:13;;;;;;;22.58;10.23;;;;;;;2.77;100.00;102521.19;5134696;27;20047;-85
2022/01/22 08:19:41;;;;;;;17.65;6.88;;;;;;;3.03;100.00;102535.56;5111279;28;20043;-85
2022/01/22 08:22:08;;;;;;;16.67;7.28;;;;;;;2.96;100.00;102525.06;5134271;27;20046;-85
2022/01/22 08:24:35;;;;;;;12.18;5.05;;;;;;;3.14;100.00;102569.47;5102638;27;20516;-84
2022/01/22 08:29:36;;;;;;;12.35;5.85;;;;;;;3.15;100.00;102547.03;5121392;27;20469;-85
2022/01/22 08:37:35;;;;;;;11.70;5.00;;;;;;;3.21;100.00;102532.50;5113566;28;20043;-84
2022/01/22 08:40:04;;;;;;;10.98;4.85;;;;;;;3.33;100.00;102521.56;5127613;27;20049;-84
2022/01/22 08:42:31;;;;;;;10.27;4.03;;;;;;;3.70;100.00;102530.06;5115734;27;20070;-84
2022/01/22 08:44:57;;;;;;;13.43;5.28;;;;;;;3.79;100.00;102526.78;5115396;27;20051;-85
2022/01/22 08:47:25;;;;;;;18.23;5.38;;;;;;;3.77;100.00;102521.56;5115538;27;20046;-84
2022/01/22 08:49:52;;;;;;;13.00;5.47;;;;;;;3.84;100.00;102545.00;5131579;27;20053;-85
2022/01/22 08:52:23;;;;;;;14.52;6.78;;;;;;;3.57;100.00;102515.13;5113066;28;20051;-85
2022/01/22 08:54:50;;;;;;;18.35;6.50;;;;;;;3.61;100.00;102537.66;5095220;27;20481;-85
2022/01/22 08:57:18;;;;;;;12.75;5.40;;;;;;;3.56;100.00;102547.94;5133434;27;20054;-85
2022/01/22 08:59:45;;;;;;;9.93;3.95;;;;;;;3.78;100.00;102545.75;5132481;27;20054;-84
2022/01/22 09:02:14;;;;;;;11.52;3.95;;;;;;;4.01;100.00;102530.66;5134259;27;20057;-85
2022/01/22 09:04:41;;;;;;;12.75;4.38;;;;;;;4.14;100.00;102526.53;5115575;27;20128;-85
2022/01/22 09:07:09;;;;;;;11.85;4.50;;;;;;;4.12;100.00;102508.38;5115282;27;20050;-84
2022/01/22 09:09:36;;;;;;;8.68;3.67;;;;;;;4.28;100.00;102487.91;5115285;27;20051;-85
2022/01/22 09:12:06;;;;;;;10.02;4.72;;;;;;;4.51;100.00;102509.88;5130817;27;20077;-85
2022/01/22 09:14:32;;;;;;;11.35;3.70;;;;;;;4.66;100.00;102522.25;5111445;28;20416;-85
2022/01/22 09:16:59;;;;;;;10.63;4.70;;;;;;;4.52;100.00;102524.63;5110470;27;20043;-84
2022/01/22 09:19:33;;;;;;;13.57;5.68;;;;;;;4.52;100.00;102513.38;5114421;27;20039;-84
2022/01/22 09:22:02;;;;;;;13.88;5.90;;;;;;;4.44;100.00;102521.00;5115564;27;20506;-86
2022/01/22 09:24:30;;;;;;;10.15;4.68;;;;;;;4.38;100.00;102508.81;5115133;27;20404;-85
2022/01/22 09:26:59;;;;;;;14.88;5.47;;;;;;;4.15;100.00;102498.06;5113807;27;20047;-85
2022/01/22 09:29:26;;;;;;;10.95;4.13;;;;;;;4.42;100.00;102534.81;5114065;28;20058;-85
2022/01/22 09:31:53;;;;;;;10.35;4.65;;;;;;;4.22;100.00;102496.44;5124041;27;20050;-84
2022/01/22 09:34:20;;;;;;;13.75;5.30;;;;;;;4.29;100.00;102523.38;5132036;27;20051;-85
2022/01/22 09:36:47;;;;;;;8.55;3.97;;;;;;;4.32;100.00;102524.28;5110920;28;20046;-85
2022/01/22 09:39:15;;;;;;;7.72;3.05;;;;;;;4.82;100.00;102525.94;5114925;28;20048;-85
2022/01/22 09:41:41;;;;;;;8.18;3.63;;;;;;;4.87;100.00;102524.28;5109088;28;20469;-85
2022/01/22 09:44:28;;;;;;;10.93;4.15;;;;;;;4.75;100.00;102514.59;5128165;28;20480;-85
2022/01/22 09:46:56;;;;;;;8.98;3.40;;;;;;;4.60;100.00;102495.31;5112480;28;20479;-85
2022/01/22 09:49:23;;;;;;;8.23;3.05;;;;;;;4.85;100.00;102523.41;5132781;28;20392;-85
2022/01/22 09:51:50;;;;;;;7.53;2.60;;;;;;;4.76;100.00;102515.44;5131266;28;20047;-84
2022/01/22 09:54:17;;;;;;;9.82;3.22;;;;;;;4.46;100.00;102508.06;5132899;28;20396;-85
2022/01/22 09:56:45;;;;;;;8.50;3.20;;;;;;;4.65;100.00;102525.66;5112911;28;20058;-85
2022/01/22 09:59:13;;;;;;;6.97;2.58;;;;;;;4.86;100.00;102519.06;5121739;28;20043;-84
2022/01/22 10:01:40;;;;;;;6.05;2.40;;;;;;;4.98;100.00;102505.41;5108062;28;20040;-85
2022/01/22 10:04:09;;;;;;;6.00;2.03;;;;;;;5.41;100.00;102512.00;5132583;28;20134;-84
2022/01/22 10:06:50;;;;;;;6.93;2.22;;;;;;;6.01;100.00;102530.06;5132828;28;20051;-85
2022/01/22 10:09:32;;;;;;;5.57;2.10;;;;;;;6.20;100.00;102531.97;5108472;28;20142;-84
2022/01/22 10:12:27;;;;;;;3.97;1.77;;;;;;;6.44;100.00;102536.50;5113476;28;20039;-85
2022/01/22 10:15:15;;;;;;;4.00;1.40;;;;;;;6.62;100.00;102537.50;5131106;28;20497;-86
2022/01/22 10:17:48;;;;;;;3.28;1.30;;;;;;;6.46;100.00;102513.09;5115171;28;20047;-85
2022/01/22 10:20:21;;;;;;;2.15;1.30;;;;;;;6.87;100.00;102546.41;5106886;28;20051;-85
2022/01/22 10:22:54;;;;;;;1.98;1.17;;;;;;;6.80;100.00;102540.28;5132982;28;20051;-85
2022/01/22 10:25:33;;;;;;;4.00;1.40;;;;;;;6.80;100.00;102537.66;5133324;28;20051;-85
2022/01/22 10:28:14;;;;;;;3.90;1.40;;;;;;;6.88;100.00;102535.09;5120194;28;20306;-86
2022/01/22 10:30:44;;;;;;;4.75;1.48;;;;;;;6.96;100.00;102537.78;5118346;28;20079;-86
2022/01/22 10:35:46;;;;;;;3.78;1.20;;;;;;;7.20;100.00;102527.47;5137502;28;20503;-86
2022/01/22 10:38:18;;;;;;;3.42;1.35;;;;;;;7.36;100.00;102523.19;5115107;28;20039;-86
2022/01/22 10:40:47;;;;;;;3.13;1.30;;;;;;;7.49;100.00;102511.13;5130497;28;20043;-85
2022/01/22 10:43:27;;;;;;;2.72;1.20;;;;;;;7.55;100.00;102525.91;5109160;28;20039;-85
2022/01/22 10:46:00;;;;;;;4.13;1.50;;;;;;;7.66;100.00;102529.41;5114432;28;20047;-85
2022/01/22 10:48:27;;;;;;;4.35;1.67;;;;;;;7.70;100.00;102533.78;5132529;27;20039;-85
2022/01/22 10:51:11;;;;;;;6.22;1.58;;;;;;;7.57;100.00;102513.72;5117665;27;20047;-86
2022/01/22 10:53:52;;;;;;;6.90;2.17;;;;;;;7.73;100.00;102535.50;5117973;27;20047;-85
2022/01/22 10:56:22;;;;;;;4.95;1.80;;;;;;;7.77;100.00;102537.25;5117346;27;20051;-85
2022/01/22 10:59:09;;;;;;;5.63;1.95;;;;;;;7.72;100.00;102541.56;5136457;27;20078;-85
2022/01/22 11:01:45;;;;;;;4.28;1.58;;;;;;;8.10;100.00;102531.25;5116850;27;20145;-86
2022/01/22 11:04:16;;;;;;;4.28;1.60;;;;;;;8.04;100.00;102536.47;5117838;27;20047;-85
2022/01/22 11:06:47;;;;;;;3.67;1.30;;;;;;;8.19;100.00;102538.22;5118561;27;20047;-85
2022/01/22 11:09:30;;;;;;;4.72;1.45;;;;;;;7.85;100.00;102472.09;5134442;27;20046;-85
2022/01/22 11:12:05;;;;;;;5.38;1.60;;;;;;;8.19;100.00;102525.16;5133883;27;20142;-85
2022/01/22 11:14:34;;;;;;;6.43;2.88;;;;;;;8.03;100.00;102542.53;5117911;27;20054;-86
2022/01/22 11:17:01;;;;;;;3.83;1.58;;;;;;;7.83;100.00;102495.56;5117415;27;20047;-86
2022/01/22 11:19:32;;;;;;;3.88;1.55;;;;;;;8.35;100.00;102534.75;5099030;28;20048;-86
2022/01/22 11:22:10;;;;;;;3.47;1.50;;;;;;;8.26;100.00;102526.91;5116400;27;20047;-86
2022/01/22 11:24:45;;;;;;;3.58;1.38;;;;;;;8.46;100.00;102534.78;5135414;27;20054;-86
2022/01/22 11:27:15;;;;;;;3.88;1.50;;;;;;;8.49;100.00;102529.56;5139362;27;20051;-85
2022/01/22 11:29:52;;;;;;;2.85;1.20;;;;;;;8.91;100.00;102533.00;5116313;27;20047;-84
2022/01/22 11:32:24;;;;;;;3.88;1.20;;;;;;;8.71;100.00;102514.75;5135966;27;20415;-84
2022/01/22 11:34:55;;;;;;;4.57;1.60;;;;;;;9.08;100.00;102519.91;5117693;27;20047;-84
2022/01/22 11:37:29;;;;;;;3.92;1.50;;;;;;;9.17;100.00;102539.03;5117070;27;20043;-85
2022/01/22 11:40:13;;;;;;;3.17;1.40;;;;;;;9.31;100.00;102527.66;5128420;27;20055;-85
2022/01/22 11:43:09;;;;;;;;;;;;;;;9.65;100.00;102537.97;5102624;28;20393;-85
2022/01/22 11:45:42;;;;;;;3.40;1.35;;;;;;;9.79;100.00;102539.63;5132705;27;19919;-84
2022/01/22 11:48:14;;;;;;;4.28;1.45;;;;;;;9.99;100.00;102535.16;5117584;27;20066;-84
2022/01/22 11:50:44;;;;;;;2.45;1.20;;;;;;;10.07;100.00;102529.88;5117920;27;20049;-84
2022/01/22 11:53:32;;;;;;;5.63;1.40;;;;;;;10.10;100.00;102539.47;5115704;28;20054;-85
2022/01/22 11:56:11;;;;;;;2.30;1.10;;;;;;;10.23;100.00;102535.88;5109588;27;20044;-84
2022/01/22 11:58:56;;;;;;;5.30;1.90;;;;;;;10.45;100.00;102536.63;5134428;27;20043;-85
2022/01/22 12:01:52;;;;;;;3.22;1.40;;;;;;;10.30;100.00;102531.47;5110805;27;20088;-88
2022/01/22 12:04:21;;;;;;;3.10;1.40;;;;;;;10.37;100.00;102520.94;5116620;27;20046;-87
2022/01/22 12:07:00;;;;;;;3.13;1.23;;;;;;;10.59;100.00;102521.66;5119788;27;20443;-86
2022/01/22 12:09:34;;;;;;;4.32;1.20;;;;;;;10.39;100.00;102502.63;5113189;28;20043;-85
2022/01/22 12:15:06;;;;;;;3.45;1.20;;;;;;;10.56;100.00;102513.81;5121594;27;20055;-88
2022/01/22 12:17:56;;;;;;;5.28;1.48;;;;;;;10.91;100.00;102528.31;5109221;27;20043;-89
2022/01/22 12:23:05;;;;;;;4.32;1.42;;;;;;;10.45;100.00;102528.75;5123988;27;20477;-90
2022/01/22 12:25:35;;;;;;;2.20;1.00;;;;;;;10.68;100.00;102525.94;5126450;27;20047;-88
2022/01/22 12:28:04;;;;;;;4.63;1.20;;;;;;;10.63;100.00;102517.25;5117285;27;20043;-88
2022/01/22 12:30:43;;;;;;;2.78;1.15;;;;;;;10.45;100.00;102460.69;5115321;27;20400;-89
2022/01/22 12:33:28;;;;;;;3.58;1.08;;;;;;;10.88;100.00;102525.72;5135052;27;20476;-87
2022/01/22 12:36:00;;;;;;;4.68;1.10;;;;;;;10.49;100.00;102477.22;5112925;28;20058;-88
2022/01/22 12:41:46;;;;;;;2.13;1.05;;;;;;;11.23;100.00;102514.00;5132320;27;20051;-89
2022/01/22 12:44:31;;;;;;;3.95;1.10;;;;;;;11.17;100.00;102525.44;5116854;27;20058;-91
2022/01/22 12:47:05;;;;;;;5.55;1.42;;;;;;;10.87;100.00;102476.84;5116237;27;20043;-88
2022/01/22 12:49:33;;;;;;;3.53;1.20;;;;;;;11.29;100.00;102516.53;5116725;27;20051;-87
2022/01/22 12:52:06;;;;;;;3.45;1.10;;;;;;;11.00;100.00;102491.53;5124323;27;20064;-86
2022/01/22 12:54:39;;;;;;;2.22;0.93;;;;;;;11.19;100.00;102497.44;5115930;27;20397;-88
2022/01/22 12:57:19;;;;;;;2.65;1.10;;;;;;;11.26;100.00;102492.09;5142214;27;20073;-88
2022/01/22 13:00:10;;;;;;;4.88;1.38;;;;;;;11.39;100.00;102498.94;5114043;27;20503;-85
2022/01/22 13:02:43;;;;;;;8.35;2.08;;;;;;;11.55;100.00;102496.97;5111814;28;20047;-86
2022/01/22 13:05:16;;;;;;;9.23;3.03;;;;;;;11.32;100.00;102487.66;5095510;28;20051;-86
2022/01/22 13:07:46;;;;;;;10.02;3.42;;;;;;;11.51;100.00;102487.41;5114598;28;20054;-85
2022/01/22 13:10:13;;;;;;;6.90;2.00;;;;;;;11.55;100.00;102466.34;5100027;27;20176;-85
2022/01/22 13:12:44;;;;;;;7.63;1.70;;;;;;;11.89;100.00;102486.00;5115449;27;20163;-85
2022/01/22 13:15:15;;;;;;;5.00;1.42;;;;;;;11.84;100.00;102503.56;5115386;27;20047;-85
2022/01/22 13:17:51;;;;;;;6.25;1.33;;;;;;;11.69;100.00;102523.03;5133910;27;20100;-85
2022/01/22 13:20:25;;;;;;;3.60;1.20;;;;;;;11.65;100.00;102526.56;5114835;27;20046;-85
2022/01/22 13:22:52;;;;;;;3.50;1.40;;;;;;;11.61;100.00;102517.00;5115748;27;20485;-85
2022/01/22 13:25:22;;;;;;;6.05;1.50;;;;;;;11.72;100.00;102512.47;5116315;27;20427;-85